sensor_id;sensor_type;location;lat;lon;timestamp;P1;durP1;ratioP1;P2;durP2;ratioP2
20417;SDS011;10368;51.436;6.774;2023-03-01T00:01:31;12.43;;;9.43;;
20417;SDS011;10368;51.436;6.774;2023-03-01T00:03:59;13.20;;;10.60;;
20417;SDS011;10368;51.436;6.774;2023-03-01T00:06:26;15.57;;;9.70;;
20417;SDS011;10368;51.436;6.774;2023-03-01T00:08:54;12.53;;;9.80;;
20417;SDS011;10368;51.436;6.774;2023-03-01T00:11:22;14.37;;;10.70;;
20417;SDS011;10368;51.436;6.774;2023-03-01T00:13:51;17.90;;;10.67;;
20417;SDS011;10368;51.436;6.774;2023-03-01T00:16:20;15.83;;;10.23;;
20417;SDS011;10368;51.436;6.774;2023-03-01T00:18:47;12.53;;;10.23;;
20417;SDS011;10368;51.436;6.774;2023-03-01T00:21:14;14.97;;;10.07;;
20417;SDS011;10368;51.436;6.774;2023-03-01T00:23:42;15.07;;;10.97;;
20417;SDS011;10368;51.436;6.774;2023-03-01T00:26:10;17.17;;;10.37;;
20417;SDS011;10368;51.436;6.774;2023-03-01T00:28:37;12.37;;;10.43;;
20417;SDS011;10368;51.436;6.774;2023-03-01T00:31:05;12.07;;;9.37;;
20417;SDS011;10368;51.436;6.774;2023-03-01T00:33:33;14.67;;;10.50;;
20417;SDS011;10368;51.436;6.774;2023-03-01T00:36:00;14.53;;;10.27;;
20417;SDS011;10368;51.436;6.774;2023-03-01T00:38:28;12.93;;;9.73;;
20417;SDS011;10368;51.436;6.774;2023-03-01T00:40:55;16.43;;;11.37;;
20417;SDS011;10368;51.436;6.774;2023-03-01T00:43:22;20.37;;;12.83;;
20417;SDS011;10368;51.436;6.774;2023-03-01T00:45:49;18.37;;;12.47;;
20417;SDS011;10368;51.436;6.774;2023-03-01T00:48:16;18.63;;;11.00;;
20417;SDS011;10368;51.436;6.774;2023-03-01T00:50:44;17.73;;;10.40;;
20417;SDS011;10368;51.436;6.774;2023-03-01T00:53:14;13.17;;;10.73;;
20417;SDS011;10368;51.436;6.774;2023-03-01T00:55:42;12.47;;;10.40;;
20417;SDS011;10368;51.436;6.774;2023-03-01T00:58:09;13.20;;;10.07;;
20417;SDS011;10368;51.436;6.774;2023-03-01T01:00:40;14.57;;;9.47;;
20417;SDS011;10368;51.436;6.774;2023-03-01T01:03:10;18.43;;;10.50;;
20417;SDS011;10368;51.436;6.774;2023-03-01T01:05:37;13.13;;;9.83;;
20417;SDS011;10368;51.436;6.774;2023-03-01T01:08:04;13.80;;;10.00;;
20417;SDS011;10368;51.436;6.774;2023-03-01T01:10:33;15.57;;;10.10;;
20417;SDS011;10368;51.436;6.774;2023-03-01T01:13:00;20.60;;;9.73;;
20417;SDS011;10368;51.436;6.774;2023-03-01T01:15:28;12.93;;;10.20;;
20417;SDS011;10368;51.436;6.774;2023-03-01T01:17:55;12.03;;;9.10;;
20417;SDS011;10368;51.436;6.774;2023-03-01T01:20:22;11.67;;;9.77;;
20417;SDS011;10368;51.436;6.774;2023-03-01T01:22:49;15.17;;;9.87;;
20417;SDS011;10368;51.436;6.774;2023-03-01T01:25:17;13.50;;;10.63;;
20417;SDS011;10368;51.436;6.774;2023-03-01T01:27:44;12.50;;;10.93;;
20417;SDS011;10368;51.436;6.774;2023-03-01T01:30:12;13.97;;;10.30;;
20417;SDS011;10368;51.436;6.774;2023-03-01T01:32:39;15.00;;;10.97;;
20417;SDS011;10368;51.436;6.774;2023-03-01T01:35:06;11.00;;;9.47;;
20417;SDS011;10368;51.436;6.774;2023-03-01T01:37:33;17.60;;;11.77;;
20417;SDS011;10368;51.436;6.774;2023-03-01T01:40:01;12.40;;;9.60;;
20417;SDS011;10368;51.436;6.774;2023-03-01T01:42:30;18.53;;;10.27;;
20417;SDS011;10368;51.436;6.774;2023-03-01T01:47:43;19.23;;;11.43;;
20417;SDS011;10368;51.436;6.774;2023-03-01T01:50:15;12.53;;;9.40;;
20417;SDS011;10368;51.436;6.774;2023-03-01T01:52:43;14.73;;;9.37;;
20417;SDS011;10368;51.436;6.774;2023-03-01T01:55:16;10.23;;;8.97;;
20417;SDS011;10368;51.436;6.774;2023-03-01T01:57:53;13.63;;;9.67;;
20417;SDS011;10368;51.436;6.774;2023-03-01T02:00:23;13.40;;;9.90;;
20417;SDS011;10368;51.436;6.774;2023-03-01T02:02:55;11.90;;;9.33;;
20417;SDS011;10368;51.436;6.774;2023-03-01T02:08:20;12.27;;;9.10;;
20417;SDS011;10368;51.436;6.774;2023-03-01T02:10:49;12.30;;;9.97;;
20417;SDS011;10368;51.436;6.774;2023-03-01T02:13:18;23.83;;;10.03;;
20417;SDS011;10368;51.436;6.774;2023-03-01T02:15:44;16.00;;;10.33;;
20417;SDS011;10368;51.436;6.774;2023-03-01T02:18:12;12.87;;;10.30;;
20417;SDS011;10368;51.436;6.774;2023-03-01T02:23:31;13.53;;;9.17;;
20417;SDS011;10368;51.436;6.774;2023-03-01T02:26:07;14.50;;;10.03;;
20417;SDS011;10368;51.436;6.774;2023-03-01T02:28:40;18.20;;;10.77;;
20417;SDS011;10368;51.436;6.774;2023-03-01T02:31:10;16.83;;;9.97;;
20417;SDS011;10368;51.436;6.774;2023-03-01T02:34:02;12.90;;;9.83;;
20417;SDS011;10368;51.436;6.774;2023-03-01T02:36:53;13.50;;;10.20;;
20417;SDS011;10368;51.436;6.774;2023-03-01T02:39:25;17.33;;;9.60;;
20417;SDS011;10368;51.436;6.774;2023-03-01T02:41:54;15.60;;;9.83;;
20417;SDS011;10368;51.436;6.774;2023-03-01T02:44:21;14.00;;;8.87;;
20417;SDS011;10368;51.436;6.774;2023-03-01T02:46:50;12.73;;;9.57;;
20417;SDS011;10368;51.436;6.774;2023-03-01T02:49:22;12.20;;;9.53;;
20417;SDS011;10368;51.436;6.774;2023-03-01T02:57:03;16.40;;;10.37;;
20417;SDS011;10368;51.436;6.774;2023-03-01T02:59:30;13.20;;;10.23;;
20417;SDS011;10368;51.436;6.774;2023-03-01T03:01:58;10.63;;;9.53;;
20417;SDS011;10368;51.436;6.774;2023-03-01T03:04:27;20.00;;;10.17;;
20417;SDS011;10368;51.436;6.774;2023-03-01T03:06:54;15.90;;;10.67;;
20417;SDS011;10368;51.436;6.774;2023-03-01T03:09:21;16.03;;;11.30;;
20417;SDS011;10368;51.436;6.774;2023-03-01T03:11:48;12.03;;;10.43;;
20417;SDS011;10368;51.436;6.774;2023-03-01T03:14:16;14.23;;;10.70;;
20417;SDS011;10368;51.436;6.774;2023-03-01T03:16:45;20.40;;;10.67;;
20417;SDS011;10368;51.436;6.774;2023-03-01T03:19:12;15.33;;;11.63;;
20417;SDS011;10368;51.436;6.774;2023-03-01T03:21:40;12.10;;;9.80;;
20417;SDS011;10368;51.436;6.774;2023-03-01T03:24:07;18.80;;;11.10;;
20417;SDS011;10368;51.436;6.774;2023-03-01T03:26:34;15.13;;;10.70;;
20417;SDS011;10368;51.436;6.774;2023-03-01T03:29:01;13.13;;;9.37;;
20417;SDS011;10368;51.436;6.774;2023-03-01T03:31:28;12.50;;;10.43;;
20417;SDS011;10368;51.436;6.774;2023-03-01T03:33:56;14.07;;;11.20;;
20417;SDS011;10368;51.436;6.774;2023-03-01T03:36:25;13.93;;;11.20;;
20417;SDS011;10368;51.436;6.774;2023-03-01T03:38:52;13.80;;;11.40;;
20417;SDS011;10368;51.436;6.774;2023-03-01T03:41:19;12.80;;;10.77;;
20417;SDS011;10368;51.436;6.774;2023-03-01T03:43:46;13.93;;;11.27;;
20417;SDS011;10368;51.436;6.774;2023-03-01T03:46:15;16.43;;;11.17;;
20417;SDS011;10368;51.436;6.774;2023-03-01T03:48:43;16.37;;;11.67;;
20417;SDS011;10368;51.436;6.774;2023-03-01T03:51:12;13.90;;;11.80;;
20417;SDS011;10368;51.436;6.774;2023-03-01T03:53:40;17.43;;;10.70;;
20417;SDS011;10368;51.436;6.774;2023-03-01T03:56:08;12.33;;;10.67;;
20417;SDS011;10368;51.436;6.774;2023-03-01T03:58:36;15.33;;;11.20;;
20417;SDS011;10368;51.436;6.774;2023-03-01T04:01:03;15.13;;;10.53;;
20417;SDS011;10368;51.436;6.774;2023-03-01T04:03:31;14.10;;;11.13;;
20417;SDS011;10368;51.436;6.774;2023-03-01T04:05:59;18.60;;;10.70;;
20417;SDS011;10368;51.436;6.774;2023-03-01T04:08:27;12.03;;;10.57;;
20417;SDS011;10368;51.436;6.774;2023-03-01T04:11:01;12.33;;;11.03;;
20417;SDS011;10368;51.436;6.774;2023-03-01T04:13:50;12.00;;;10.60;;
20417;SDS011;10368;51.436;6.774;2023-03-01T04:16:17;13.40;;;11.43;;
20417;SDS011;10368;51.436;6.774;2023-03-01T04:18:45;12.77;;;10.00;;
20417;SDS011;10368;51.436;6.774;2023-03-01T04:21:12;20.03;;;11.07;;
20417;SDS011;10368;51.436;6.774;2023-03-01T04:23:40;12.53;;;10.63;;
20417;SDS011;10368;51.436;6.774;2023-03-01T04:26:07;12.10;;;10.10;;
20417;SDS011;10368;51.436;6.774;2023-03-01T04:28:36;14.50;;;10.57;;
20417;SDS011;10368;51.436;6.774;2023-03-01T04:31:11;14.90;;;11.13;;
20417;SDS011;10368;51.436;6.774;2023-03-01T04:36:11;14.50;;;10.37;;
20417;SDS011;10368;51.436;6.774;2023-03-01T04:38:38;16.43;;;12.17;;
20417;SDS011;10368;51.436;6.774;2023-03-01T04:41:06;13.67;;;10.30;;
20417;SDS011;10368;51.436;6.774;2023-03-01T04:43:33;14.43;;;11.33;;
20417;SDS011;10368;51.436;6.774;2023-03-01T04:46:19;17.13;;;11.47;;
20417;SDS011;10368;51.436;6.774;2023-03-01T04:48:46;17.27;;;10.67;;
20417;SDS011;10368;51.436;6.774;2023-03-01T04:51:14;15.77;;;10.93;;
20417;SDS011;10368;51.436;6.774;2023-03-01T04:53:42;21.43;;;11.23;;
20417;SDS011;10368;51.436;6.774;2023-03-01T04:56:09;20.33;;;12.43;;
20417;SDS011;10368;51.436;6.774;2023-03-01T04:58:36;13.30;;;11.20;;
20417;SDS011;10368;51.436;6.774;2023-03-01T05:01:08;14.57;;;11.13;;
20417;SDS011;10368;51.436;6.774;2023-03-01T05:03:42;13.90;;;10.53;;
20417;SDS011;10368;51.436;6.774;2023-03-01T05:06:09;17.07;;;12.10;;
20417;SDS011;10368;51.436;6.774;2023-03-01T05:08:37;17.33;;;10.87;;
20417;SDS011;10368;51.436;6.774;2023-03-01T05:11:05;15.10;;;10.77;;
20417;SDS011;10368;51.436;6.774;2023-03-01T05:13:35;14.00;;;11.17;;
20417;SDS011;10368;51.436;6.774;2023-03-01T05:16:03;14.03;;;10.93;;
20417;SDS011;10368;51.436;6.774;2023-03-01T05:18:31;18.93;;;11.57;;
20417;SDS011;10368;51.436;6.774;2023-03-01T05:21:03;17.90;;;11.30;;
20417;SDS011;10368;51.436;6.774;2023-03-01T05:23:32;13.13;;;11.00;;
20417;SDS011;10368;51.436;6.774;2023-03-01T05:26:00;15.80;;;11.37;;
20417;SDS011;10368;51.436;6.774;2023-03-01T05:28:28;16.03;;;11.07;;
20417;SDS011;10368;51.436;6.774;2023-03-01T05:30:55;16.80;;;11.27;;
20417;SDS011;10368;51.436;6.774;2023-03-01T05:33:23;18.13;;;11.23;;
20417;SDS011;10368;51.436;6.774;2023-03-01T05:35:51;13.73;;;10.90;;
20417;SDS011;10368;51.436;6.774;2023-03-01T05:38:20;17.93;;;11.70;;
20417;SDS011;10368;51.436;6.774;2023-03-01T05:40:48;17.37;;;11.27;;
20417;SDS011;10368;51.436;6.774;2023-03-01T05:43:15;15.77;;;11.63;;
20417;SDS011;10368;51.436;6.774;2023-03-01T05:45:43;18.40;;;11.77;;
20417;SDS011;10368;51.436;6.774;2023-03-01T05:48:11;16.47;;;11.87;;
20417;SDS011;10368;51.436;6.774;2023-03-01T05:50:42;14.43;;;10.77;;
20417;SDS011;10368;51.436;6.774;2023-03-01T05:53:18;16.13;;;11.23;;
20417;SDS011;10368;51.436;6.774;2023-03-01T05:55:48;13.77;;;10.97;;
20417;SDS011;10368;51.436;6.774;2023-03-01T05:58:17;14.33;;;9.83;;
20417;SDS011;10368;51.436;6.774;2023-03-01T06:00:46;14.03;;;10.83;;
20417;SDS011;10368;51.436;6.774;2023-03-01T06:03:14;19.97;;;12.17;;
20417;SDS011;10368;51.436;6.774;2023-03-01T06:05:43;17.33;;;11.20;;
20417;SDS011;10368;51.436;6.774;2023-03-01T06:08:11;16.97;;;10.87;;
20417;SDS011;10368;51.436;6.774;2023-03-01T06:10:38;13.73;;;11.47;;
20417;SDS011;10368;51.436;6.774;2023-03-01T06:13:06;13.93;;;10.97;;
20417;SDS011;10368;51.436;6.774;2023-03-01T06:15:33;18.83;;;11.27;;
20417;SDS011;10368;51.436;6.774;2023-03-01T06:18:00;17.93;;;12.50;;
20417;SDS011;10368;51.436;6.774;2023-03-01T06:20:27;15.80;;;11.80;;
20417;SDS011;10368;51.436;6.774;2023-03-01T06:22:55;15.50;;;11.77;;
20417;SDS011;10368;51.436;6.774;2023-03-01T06:25:23;16.30;;;12.57;;
20417;SDS011;10368;51.436;6.774;2023-03-01T06:27:51;17.10;;;12.60;;
20417;SDS011;10368;51.436;6.774;2023-03-01T06:30:21;14.67;;;11.17;;
20417;SDS011;10368;51.436;6.774;2023-03-01T06:32:49;18.23;;;11.67;;
20417;SDS011;10368;51.436;6.774;2023-03-01T06:35:16;16.20;;;12.73;;
20417;SDS011;10368;51.436;6.774;2023-03-01T06:37:45;18.83;;;12.13;;
20417;SDS011;10368;51.436;6.774;2023-03-01T06:40:12;16.93;;;11.60;;
20417;SDS011;10368;51.436;6.774;2023-03-01T06:42:41;18.70;;;11.90;;
20417;SDS011;10368;51.436;6.774;2023-03-01T06:45:09;16.53;;;11.77;;
20417;SDS011;10368;51.436;6.774;2023-03-01T06:47:36;18.73;;;11.80;;
20417;SDS011;10368;51.436;6.774;2023-03-01T06:50:03;15.33;;;12.70;;
20417;SDS011;10368;51.436;6.774;2023-03-01T06:52:30;18.17;;;11.87;;
20417;SDS011;10368;51.436;6.774;2023-03-01T06:54:57;14.40;;;12.00;;
20417;SDS011;10368;51.436;6.774;2023-03-01T06:57:25;19.63;;;12.50;;
20417;SDS011;10368;51.436;6.774;2023-03-01T06:59:52;19.23;;;13.23;;
20417;SDS011;10368;51.436;6.774;2023-03-01T07:02:18;17.47;;;12.17;;
20417;SDS011;10368;51.436;6.774;2023-03-01T07:04:45;19.07;;;12.00;;
20417;SDS011;10368;51.436;6.774;2023-03-01T07:07:12;14.70;;;11.07;;
20417;SDS011;10368;51.436;6.774;2023-03-01T07:09:39;17.77;;;12.40;;
20417;SDS011;10368;51.436;6.774;2023-03-01T07:12:06;18.87;;;12.87;;
20417;SDS011;10368;51.436;6.774;2023-03-01T07:14:33;20.60;;;12.83;;
20417;SDS011;10368;51.436;6.774;2023-03-01T07:17:00;17.97;;;12.43;;
20417;SDS011;10368;51.436;6.774;2023-03-01T07:19:27;18.80;;;12.57;;
20417;SDS011;10368;51.436;6.774;2023-03-01T07:21:54;15.50;;;12.23;;
20417;SDS011;10368;51.436;6.774;2023-03-01T07:24:22;17.50;;;11.63;;
20417;SDS011;10368;51.436;6.774;2023-03-01T07:26:49;15.60;;;12.43;;
20417;SDS011;10368;51.436;6.774;2023-03-01T07:29:16;21.43;;;12.37;;
20417;SDS011;10368;51.436;6.774;2023-03-01T07:31:44;18.27;;;12.23;;
20417;SDS011;10368;51.436;6.774;2023-03-01T07:34:11;19.20;;;11.90;;
20417;SDS011;10368;51.436;6.774;2023-03-01T07:36:38;16.27;;;12.23;;
20417;SDS011;10368;51.436;6.774;2023-03-01T07:39:09;14.80;;;12.13;;
20417;SDS011;10368;51.436;6.774;2023-03-01T07:41:36;14.10;;;10.57;;
20417;SDS011;10368;51.436;6.774;2023-03-01T07:44:03;20.90;;;11.97;;
20417;SDS011;10368;51.436;6.774;2023-03-01T07:46:31;15.23;;;12.67;;
20417;SDS011;10368;51.436;6.774;2023-03-01T07:48:58;14.87;;;12.30;;
20417;SDS011;10368;51.436;6.774;2023-03-01T07:51:25;14.03;;;11.97;;
20417;SDS011;10368;51.436;6.774;2023-03-01T07:53:53;15.27;;;12.77;;
20417;SDS011;10368;51.436;6.774;2023-03-01T07:56:20;16.63;;;12.60;;
20417;SDS011;10368;51.436;6.774;2023-03-01T07:58:48;14.77;;;11.93;;
20417;SDS011;10368;51.436;6.774;2023-03-01T08:01:17;17.57;;;12.20;;
20417;SDS011;10368;51.436;6.774;2023-03-01T08:03:44;18.30;;;12.13;;
20417;SDS011;10368;51.436;6.774;2023-03-01T08:06:13;15.47;;;12.07;;
20417;SDS011;10368;51.436;6.774;2023-03-01T08:08:40;20.73;;;12.70;;
20417;SDS011;10368;51.436;6.774;2023-03-01T08:11:09;21.23;;;12.73;;
20417;SDS011;10368;51.436;6.774;2023-03-01T08:13:37;32.07;;;16.50;;
20417;SDS011;10368;51.436;6.774;2023-03-01T08:16:05;19.90;;;14.63;;
20417;SDS011;10368;51.436;6.774;2023-03-01T08:18:33;16.03;;;12.53;;
20417;SDS011;10368;51.436;6.774;2023-03-01T08:21:01;14.77;;;12.23;;
20417;SDS011;10368;51.436;6.774;2023-03-01T08:23:28;16.63;;;12.73;;
20417;SDS011;10368;51.436;6.774;2023-03-01T08:26:02;24.47;;;12.87;;
20417;SDS011;10368;51.436;6.774;2023-03-01T08:28:30;21.17;;;12.47;;
20417;SDS011;10368;51.436;6.774;2023-03-01T08:30:57;20.80;;;13.57;;
20417;SDS011;10368;51.436;6.774;2023-03-01T08:33:24;17.97;;;13.23;;
20417;SDS011;10368;51.436;6.774;2023-03-01T08:35:51;17.07;;;11.33;;
20417;SDS011;10368;51.436;6.774;2023-03-01T08:38:18;15.93;;;11.87;;
20417;SDS011;10368;51.436;6.774;2023-03-01T08:40:45;16.13;;;11.37;;
20417;SDS011;10368;51.436;6.774;2023-03-01T08:43:13;16.67;;;11.70;;
20417;SDS011;10368;51.436;6.774;2023-03-01T08:45:40;14.53;;;10.40;;
20417;SDS011;10368;51.436;6.774;2023-03-01T08:48:07;17.77;;;11.07;;
20417;SDS011;10368;51.436;6.774;2023-03-01T08:50:34;13.37;;;11.20;;
20417;SDS011;10368;51.436;6.774;2023-03-01T08:53:01;18.73;;;11.70;;
20417;SDS011;10368;51.436;6.774;2023-03-01T08:55:29;22.40;;;12.57;;
20417;SDS011;10368;51.436;6.774;2023-03-01T08:57:56;13.07;;;10.53;;
20417;SDS011;10368;51.436;6.774;2023-03-01T09:00:25;17.40;;;10.40;;
20417;SDS011;10368;51.436;6.774;2023-03-01T09:02:52;13.80;;;9.90;;
20417;SDS011;10368;51.436;6.774;2023-03-01T09:05:20;13.93;;;9.70;;
20417;SDS011;10368;51.436;6.774;2023-03-01T09:07:47;12.63;;;9.53;;
20417;SDS011;10368;51.436;6.774;2023-03-01T09:10:14;13.13;;;9.83;;
20417;SDS011;10368;51.436;6.774;2023-03-01T09:12:41;11.17;;;9.43;;
20417;SDS011;10368;51.436;6.774;2023-03-01T09:15:08;15.77;;;10.60;;
20417;SDS011;10368;51.436;6.774;2023-03-01T09:17:36;12.50;;;9.60;;
20417;SDS011;10368;51.436;6.774;2023-03-01T09:20:03;12.20;;;10.60;;
20417;SDS011;10368;51.436;6.774;2023-03-01T09:22:35;16.30;;;10.53;;
20417;SDS011;10368;51.436;6.774;2023-03-01T09:25:02;11.63;;;9.77;;
20417;SDS011;10368;51.436;6.774;2023-03-01T09:27:29;14.83;;;10.00;;
20417;SDS011;10368;51.436;6.774;2023-03-01T09:29:56;11.50;;;9.00;;
20417;SDS011;10368;51.436;6.774;2023-03-01T09:32:23;13.27;;;9.20;;
20417;SDS011;10368;51.436;6.774;2023-03-01T09:34:51;14.30;;;10.43;;
20417;SDS011;10368;51.436;6.774;2023-03-01T09:37:30;11.63;;;10.30;;
20417;SDS011;10368;51.436;6.774;2023-03-01T09:39:58;13.80;;;9.63;;
20417;SDS011;10368;51.436;6.774;2023-03-01T09:42:25;12.20;;;10.27;;
20417;SDS011;10368;51.436;6.774;2023-03-01T09:44:58;13.50;;;10.07;;
20417;SDS011;10368;51.436;6.774;2023-03-01T09:47:29;12.53;;;10.17;;
20417;SDS011;10368;51.436;6.774;2023-03-01T09:52:38;15.27;;;9.83;;
20417;SDS011;10368;51.436;6.774;2023-03-01T09:55:10;12.87;;;9.30;;
20417;SDS011;10368;51.436;6.774;2023-03-01T09:57:51;12.23;;;9.97;;
20417;SDS011;10368;51.436;6.774;2023-03-01T10:03:25;13.20;;;9.47;;
20417;SDS011;10368;51.436;6.774;2023-03-01T10:05:57;16.40;;;10.13;;
20417;SDS011;10368;51.436;6.774;2023-03-01T10:08:30;17.03;;;11.63;;
20417;SDS011;10368;51.436;6.774;2023-03-01T10:11:03;47.57;;;19.07;;
20417;SDS011;10368;51.436;6.774;2023-03-01T10:19:21;12.70;;;9.63;;
20417;SDS011;10368;51.436;6.774;2023-03-01T10:22:03;13.80;;;8.40;;
20417;SDS011;10368;51.436;6.774;2023-03-01T10:24:39;52.00;;;29.40;;
20417;SDS011;10368;51.436;6.774;2023-03-01T10:27:12;29.17;;;17.33;;
20417;SDS011;10368;51.436;6.774;2023-03-01T10:32:49;17.67;;;9.57;;
20417;SDS011;10368;51.436;6.774;2023-03-01T10:35:22;12.23;;;9.73;;
20417;SDS011;10368;51.436;6.774;2023-03-01T10:38:08;11.17;;;9.30;;
20417;SDS011;10368;51.436;6.774;2023-03-01T10:40:37;10.87;;;8.50;;
20417;SDS011;10368;51.436;6.774;2023-03-01T10:43:16;10.60;;;8.20;;
20417;SDS011;10368;51.436;6.774;2023-03-01T10:45:44;12.57;;;8.40;;
20417;SDS011;10368;51.436;6.774;2023-03-01T10:48:15;16.13;;;10.33;;
20417;SDS011;10368;51.436;6.774;2023-03-01T10:53:33;19.67;;;11.00;;
20417;SDS011;10368;51.436;6.774;2023-03-01T10:58:28;11.00;;;8.50;;
20417;SDS011;10368;51.436;6.774;2023-03-01T11:01:00;12.93;;;8.63;;
20417;SDS011;10368;51.436;6.774;2023-03-01T11:06:01;9.77;;;7.67;;
20417;SDS011;10368;51.436;6.774;2023-03-01T11:08:31;8.80;;;6.97;;
20417;SDS011;10368;51.436;6.774;2023-03-01T11:11:19;9.40;;;8.40;;
20417;SDS011;10368;51.436;6.774;2023-03-01T11:16:27;12.87;;;8.23;;
20417;SDS011;10368;51.436;6.774;2023-03-01T11:18:58;8.23;;;7.13;;
20417;SDS011;10368;51.436;6.774;2023-03-01T11:21:26;9.10;;;7.20;;
20417;SDS011;10368;51.436;6.774;2023-03-01T11:23:58;9.87;;;7.40;;
20417;SDS011;10368;51.436;6.774;2023-03-01T11:26:27;9.68;;;7.43;;
20417;SDS011;10368;51.436;6.774;2023-03-01T11:28:56;9.40;;;7.32;;
20417;SDS011;10368;51.436;6.774;2023-03-01T11:31:28;9.18;;;8.27;;
20417;SDS011;10368;51.436;6.774;2023-03-01T11:34:01;9.70;;;7.13;;
20417;SDS011;10368;51.436;6.774;2023-03-01T11:36:46;8.10;;;7.22;;
20417;SDS011;10368;51.436;6.774;2023-03-01T11:39:43;8.32;;;7.43;;
20417;SDS011;10368;51.436;6.774;2023-03-01T11:45:09;6.93;;;6.32;;
20417;SDS011;10368;51.436;6.774;2023-03-01T11:50:40;12.40;;;10.23;;
20417;SDS011;10368;51.436;6.774;2023-03-01T11:53:33;7.50;;;6.80;;
20417;SDS011;10368;51.436;6.774;2023-03-01T11:59:20;7.75;;;6.78;;
20417;SDS011;10368;51.436;6.774;2023-03-01T12:04:58;10.45;;;8.13;;
20417;SDS011;10368;51.436;6.774;2023-03-01T12:07:52;7.57;;;6.88;;
20417;SDS011;10368;51.436;6.774;2023-03-01T12:11:05;6.75;;;6.15;;
20417;SDS011;10368;51.436;6.774;2023-03-01T12:16:20;7.32;;;6.45;;
20417;SDS011;10368;51.436;6.774;2023-03-01T12:19:07;7.68;;;6.90;;
20417;SDS011;10368;51.436;6.774;2023-03-01T12:30:36;8.27;;;7.10;;
20417;SDS011;10368;51.436;6.774;2023-03-01T12:47:23;7.63;;;6.85;;
20417;SDS011;10368;51.436;6.774;2023-03-01T12:50:17;8.52;;;6.72;;
20417;SDS011;10368;51.436;6.774;2023-03-01T12:55:28;7.88;;;7.05;;
20417;SDS011;10368;51.436;6.774;2023-03-01T13:06:18;7.57;;;6.93;;
20417;SDS011;10368;51.436;6.774;2023-03-01T13:11:42;9.27;;;8.38;;
20417;SDS011;10368;51.436;6.774;2023-03-01T13:16:49;7.85;;;7.13;;
20417;SDS011;10368;51.436;6.774;2023-03-01T13:21:48;7.90;;;7.10;;
20417;SDS011;10368;51.436;6.774;2023-03-01T13:29:55;9.60;;;8.75;;
20417;SDS011;10368;51.436;6.774;2023-03-01T13:32:25;10.35;;;8.13;;
20417;SDS011;10368;51.436;6.774;2023-03-01T13:37:43;10.50;;;7.45;;
20417;SDS011;10368;51.436;6.774;2023-03-01T13:42:47;7.03;;;6.32;;
20417;SDS011;10368;51.436;6.774;2023-03-01T13:45:38;8.85;;;7.65;;
20417;SDS011;10368;51.436;6.774;2023-03-01T13:48:11;7.32;;;6.60;;
20417;SDS011;10368;51.436;6.774;2023-03-01T13:50:47;7.68;;;7.05;;
20417;SDS011;10368;51.436;6.774;2023-03-01T13:53:43;6.93;;;6.32;;
20417;SDS011;10368;51.436;6.774;2023-03-01T13:56:13;8.65;;;7.32;;
20417;SDS011;10368;51.436;6.774;2023-03-01T13:58:52;7.90;;;6.68;;
20417;SDS011;10368;51.436;6.774;2023-03-01T14:01:29;7.63;;;6.85;;
20417;SDS011;10368;51.436;6.774;2023-03-01T14:04:02;7.80;;;7.00;;
20417;SDS011;10368;51.436;6.774;2023-03-01T14:06:44;7.72;;;6.32;;
20417;SDS011;10368;51.436;6.774;2023-03-01T14:09:16;7.18;;;6.57;;
20417;SDS011;10368;51.436;6.774;2023-03-01T14:17:27;7.82;;;7.03;;
20417;SDS011;10368;51.436;6.774;2023-03-01T14:20:11;8.98;;;6.95;;
20417;SDS011;10368;51.436;6.774;2023-03-01T14:22:43;9.20;;;7.68;;
20417;SDS011;10368;51.436;6.774;2023-03-01T14:25:25;8.20;;;7.40;;
20417;SDS011;10368;51.436;6.774;2023-03-01T14:27:57;8.20;;;7.50;;
20417;SDS011;10368;51.436;6.774;2023-03-01T14:30:35;7.63;;;6.90;;
20417;SDS011;10368;51.436;6.774;2023-03-01T14:33:16;9.35;;;7.80;;
20417;SDS011;10368;51.436;6.774;2023-03-01T14:35:54;9.00;;;7.82;;
20417;SDS011;10368;51.436;6.774;2023-03-01T14:41:08;8.27;;;7.15;;
20417;SDS011;10368;51.436;6.774;2023-03-01T14:43:39;8.07;;;7.38;;
20417;SDS011;10368;51.436;6.774;2023-03-01T14:46:32;8.95;;;7.80;;
20417;SDS011;10368;51.436;6.774;2023-03-01T14:49:02;8.15;;;7.43;;
20417;SDS011;10368;51.436;6.774;2023-03-01T14:51:36;11.57;;;10.30;;
20417;SDS011;10368;51.436;6.774;2023-03-01T14:54:40;9.02;;;7.88;;
20417;SDS011;10368;51.436;6.774;2023-03-01T14:56:58;10.55;;;7.63;;
20417;SDS011;10368;51.436;6.774;2023-03-01T14:59:27;8.75;;;7.85;;
20417;SDS011;10368;51.436;6.774;2023-03-01T15:01:55;8.65;;;7.70;;
20417;SDS011;10368;51.436;6.774;2023-03-01T15:04:24;9.02;;;8.13;;
20417;SDS011;10368;51.436;6.774;2023-03-01T15:06:52;9.90;;;7.63;;
20417;SDS011;10368;51.436;6.774;2023-03-01T15:09:22;9.73;;;8.82;;
20417;SDS011;10368;51.436;6.774;2023-03-01T15:11:49;10.20;;;8.98;;
20417;SDS011;10368;51.436;6.774;2023-03-01T15:14:59;10.10;;;9.15;;
20417;SDS011;10368;51.436;6.774;2023-03-01T15:17:21;12.65;;;11.38;;
20417;SDS011;10368;51.436;6.774;2023-03-01T15:19:57;13.38;;;12.02;;
20417;SDS011;10368;51.436;6.774;2023-03-01T15:22:25;10.63;;;9.52;;
20417;SDS011;10368;51.436;6.774;2023-03-01T15:24:53;10.73;;;9.63;;
20417;SDS011;10368;51.436;6.774;2023-03-01T15:27:24;9.80;;;8.73;;
20417;SDS011;10368;51.436;6.774;2023-03-01T15:29:54;10.02;;;9.13;;
20417;SDS011;10368;51.436;6.774;2023-03-01T15:34:55;9.27;;;8.38;;
20417;SDS011;10368;51.436;6.774;2023-03-01T15:42:51;8.57;;;7.75;;
20417;SDS011;10368;51.436;6.774;2023-03-01T15:45:22;8.95;;;7.88;;
20417;SDS011;10368;51.436;6.774;2023-03-01T15:47:52;8.73;;;7.80;;
20417;SDS011;10368;51.436;6.774;2023-03-01T15:52:56;8.70;;;7.05;;
20417;SDS011;10368;51.436;6.774;2023-03-01T15:55:29;7.63;;;6.93;;
20417;SDS011;10368;51.436;6.774;2023-03-01T15:58:00;9.15;;;7.68;;
20417;SDS011;10368;51.436;6.774;2023-03-01T16:00:28;9.45;;;8.20;;
20417;SDS011;10368;51.436;6.774;2023-03-01T16:02:55;8.15;;;7.35;;
20417;SDS011;10368;51.436;6.774;2023-03-01T16:05:24;9.48;;;8.50;;
20417;SDS011;10368;51.436;6.774;2023-03-01T16:07:51;9.57;;;8.18;;
20417;SDS011;10368;51.436;6.774;2023-03-01T16:10:19;9.37;;;8.17;;
20417;SDS011;10368;51.436;6.774;2023-03-01T16:12:46;9.47;;;8.20;;
20417;SDS011;10368;51.436;6.774;2023-03-01T16:15:16;11.70;;;7.83;;
20417;SDS011;10368;51.436;6.774;2023-03-01T16:17:44;9.60;;;7.57;;
20417;SDS011;10368;51.436;6.774;2023-03-01T16:20:11;10.80;;;7.90;;
20417;SDS011;10368;51.436;6.774;2023-03-01T16:22:53;8.90;;;7.97;;
20417;SDS011;10368;51.436;6.774;2023-03-01T16:25:20;10.83;;;8.17;;
20417;SDS011;10368;51.436;6.774;2023-03-01T16:27:48;13.67;;;9.60;;
20417;SDS011;10368;51.436;6.774;2023-03-01T16:30:18;9.67;;;8.33;;
20417;SDS011;10368;51.436;6.774;2023-03-01T16:32:46;9.80;;;7.47;;
20417;SDS011;10368;51.436;6.774;2023-03-01T16:35:15;8.07;;;7.07;;
20417;SDS011;10368;51.436;6.774;2023-03-01T16:37:43;9.23;;;6.80;;
20417;SDS011;10368;51.436;6.774;2023-03-01T16:40:20;8.90;;;7.70;;
20417;SDS011;10368;51.436;6.774;2023-03-01T16:42:48;7.83;;;7.03;;
20417;SDS011;10368;51.436;6.774;2023-03-01T16:45:16;11.60;;;7.27;;
20417;SDS011;10368;51.436;6.774;2023-03-01T16:47:50;10.20;;;6.97;;
20417;SDS011;10368;51.436;6.774;2023-03-01T16:50:20;7.47;;;6.67;;
20417;SDS011;10368;51.436;6.774;2023-03-01T16:52:48;10.60;;;7.47;;
20417;SDS011;10368;51.436;6.774;2023-03-01T16:55:15;8.67;;;7.57;;
20417;SDS011;10368;51.436;6.774;2023-03-01T16:57:42;12.50;;;8.37;;